sensor_id;sensor_type;location;lat;lon;timestamp;pressure;altitude;pressure_sealevel;temperature
71463;BMP180;59266;52.608;13.260;2023-07-24T00:02:17;100225.00;;;18.40
71463;BMP180;59266;52.608;13.260;2023-07-24T00:04:46;100226.00;;;18.50
71463;BMP180;59266;52.608;13.260;2023-07-24T00:07:12;100225.00;;;18.50
71463;BMP180;59266;52.608;13.260;2023-07-24T00:09:41;100220.00;;;18.30
71463;BMP180;59266;52.608;13.260;2023-07-24T00:12:10;100220.00;;;18.40
71463;BMP180;59266;52.608;13.260;2023-07-24T00:14:36;100215.00;;;18.40
71463;BMP180;59266;52.608;13.260;2023-07-24T00:17:03;100218.00;;;18.40
71463;BMP180;59266;52.608;13.260;2023-07-24T00:19:31;100223.00;;;18.50
71463;BMP180;59266;52.608;13.260;2023-07-24T00:21:57;100215.00;;;18.50
71463;BMP180;59266;52.608;13.260;2023-07-24T00:24:24;100208.00;;;18.40
71463;BMP180;59266;52.608;13.260;2023-07-24T00:26:51;100221.00;;;18.50
71463;BMP180;59266;52.608;13.260;2023-07-24T00:29:19;100217.00;;;18.60
71463;BMP180;59266;52.608;13.260;2023-07-24T00:31:48;100207.00;;;18.90
71463;BMP180;59266;52.608;13.260;2023-07-24T00:34:15;100207.00;;;19.00
71463;BMP180;59266;52.608;13.260;2023-07-24T00:36:42;100210.00;;;19.00
71463;BMP180;59266;52.608;13.260;2023-07-24T00:39:08;100202.00;;;19.20
71463;BMP180;59266;52.608;13.260;2023-07-24T00:41:36;100205.00;;;19.30
71463;BMP180;59266;52.608;13.260;2023-07-24T00:44:04;100189.00;;;19.30
71463;BMP180;59266;52.608;13.260;2023-07-24T00:46:34;100192.00;;;19.40
71463;BMP180;59266;52.608;13.260;2023-07-24T00:49:04;100187.00;;;19.50
71463;BMP180;59266;52.608;13.260;2023-07-24T00:51:32;100186.00;;;19.40
71463;BMP180;59266;52.608;13.260;2023-07-24T00:54:01;100187.00;;;19.40
71463;BMP180;59266;52.608;13.260;2023-07-24T00:56:29;100187.00;;;19.50
71463;BMP180;59266;52.608;13.260;2023-07-24T00:58:58;100187.00;;;19.40
71463;BMP180;59266;52.608;13.260;2023-07-24T01:01:26;100185.00;;;19.20
71463;BMP180;59266;52.608;13.260;2023-07-24T01:03:54;100176.00;;;19.30
71463;BMP180;59266;52.608;13.260;2023-07-24T01:06:23;100176.00;;;19.10
71463;BMP180;59266;52.608;13.260;2023-07-24T01:08:53;100163.00;;;18.90
71463;BMP180;59266;52.608;13.260;2023-07-24T01:11:27;100164.00;;;18.80
71463;BMP180;59266;52.608;13.260;2023-07-24T01:14:02;100157.00;;;18.90
71463;BMP180;59266;52.608;13.260;2023-07-24T01:16:37;100161.00;;;18.70
71463;BMP180;59266;52.608;13.260;2023-07-24T01:19:12;100154.00;;;18.90
71463;BMP180;59266;52.608;13.260;2023-07-24T01:21:58;100155.00;;;18.70
71463;BMP180;59266;52.608;13.260;2023-07-24T01:24:33;100155.00;;;18.80
71463;BMP180;59266;52.608;13.260;2023-07-24T01:27:03;100156.00;;;18.80
71463;BMP180;59266;52.608;13.260;2023-07-24T01:29:29;100154.00;;;18.90
71463;BMP180;59266;52.608;13.260;2023-07-24T01:31:56;100148.00;;;18.90
71463;BMP180;59266;52.608;13.260;2023-07-24T01:34:23;100148.00;;;18.80
71463;BMP180;59266;52.608;13.260;2023-07-24T01:36:50;100148.00;;;18.80
71463;BMP180;59266;52.608;13.260;2023-07-24T01:39:18;100152.00;;;18.70
71463;BMP180;59266;52.608;13.260;2023-07-24T01:41:47;100149.00;;;18.80
71463;BMP180;59266;52.608;13.260;2023-07-24T01:44:13;100142.00;;;18.70
71463;BMP180;59266;52.608;13.260;2023-07-24T01:46:40;100141.00;;;18.80
71463;BMP180;59266;52.608;13.260;2023-07-24T01:49:08;100151.00;;;18.60
71463;BMP180;59266;52.608;13.260;2023-07-24T01:51:34;100153.00;;;18.70
71463;BMP180;59266;52.608;13.260;2023-07-24T01:54:01;100143.00;;;18.80
71463;BMP180;59266;52.608;13.260;2023-07-24T01:56:28;100153.00;;;18.90
71463;BMP180;59266;52.608;13.260;2023-07-24T01:58:56;100139.00;;;18.90
71463;BMP180;59266;52.608;13.260;2023-07-24T02:01:26;100146.00;;;18.70
71463;BMP180;59266;52.608;13.260;2023-07-24T02:03:57;100135.00;;;18.90
71463;BMP180;59266;52.608;13.260;2023-07-24T02:06:23;100125.00;;;19.00
71463;BMP180;59266;52.608;13.260;2023-07-24T02:08:50;100126.00;;;19.00
71463;BMP180;59266;52.608;13.260;2023-07-24T02:11:20;100135.00;;;19.10
71463;BMP180;59266;52.608;13.260;2023-07-24T02:13:49;100131.00;;;19.20
71463;BMP180;59266;52.608;13.260;2023-07-24T02:16:15;100130.00;;;19.30
71463;BMP180;59266;52.608;13.260;2023-07-24T02:18:42;100115.00;;;19.40
71463;BMP180;59266;52.608;13.260;2023-07-24T02:21:09;100116.00;;;19.50
71463;BMP180;59266;52.608;13.260;2023-07-24T02:23:36;100116.00;;;19.50
71463;BMP180;59266;52.608;13.260;2023-07-24T02:26:03;100123.00;;;19.50
71463;BMP180;59266;52.608;13.260;2023-07-24T02:28:32;100118.00;;;19.40
71463;BMP180;59266;52.608;13.260;2023-07-24T02:30:59;100118.00;;;19.40
71463;BMP180;59266;52.608;13.260;2023-07-24T02:33:27;100116.00;;;19.60
71463;BMP180;59266;52.608;13.260;2023-07-24T02:35:53;100117.00;;;19.60
71463;BMP180;59266;52.608;13.260;2023-07-24T02:38:21;100113.00;;;19.60
71463;BMP180;59266;52.608;13.260;2023-07-24T02:40:49;100118.00;;;19.70
71463;BMP180;59266;52.608;13.260;2023-07-24T02:43:18;100110.00;;;19.70
71463;BMP180;59266;52.608;13.260;2023-07-24T02:45:45;100117.00;;;19.70
71463;BMP180;59266;52.608;13.260;2023-07-24T02:48:11;100124.00;;;19.80
71463;BMP180;59266;52.608;13.260;2023-07-24T02:50:39;100134.00;;;19.80
71463;BMP180;59266;52.608;13.260;2023-07-24T02:53:06;100134.00;;;19.80
71463;BMP180;59266;52.608;13.260;2023-07-24T02:55:33;100136.00;;;19.80
71463;BMP180;59266;52.608;13.260;2023-07-24T02:58:01;100142.00;;;19.90
71463;BMP180;59266;52.608;13.260;2023-07-24T03:00:29;100145.00;;;19.80
71463;BMP180;59266;52.608;13.260;2023-07-24T03:02:58;100147.00;;;19.80
71463;BMP180;59266;52.608;13.260;2023-07-24T03:05:25;100144.00;;;19.90
71463;BMP180;59266;52.608;13.260;2023-07-24T03:07:56;100148.00;;;19.90
71463;BMP180;59266;52.608;13.260;2023-07-24T03:10:23;100152.00;;;19.90
71463;BMP180;59266;52.608;13.260;2023-07-24T03:12:51;100154.00;;;19.90
71463;BMP180;59266;52.608;13.260;2023-07-24T03:15:18;100149.00;;;20.00
71463;BMP180;59266;52.608;13.260;2023-07-24T03:17:45;100144.00;;;20.00
71463;BMP180;59266;52.608;13.260;2023-07-24T03:20:15;100146.00;;;20.00
71463;BMP180;59266;52.608;13.260;2023-07-24T03:22:43;100149.00;;;19.90
71463;BMP180;59266;52.608;13.260;2023-07-24T03:25:10;100145.00;;;20.00
71463;BMP180;59266;52.608;13.260;2023-07-24T03:27:37;100159.00;;;20.00
71463;BMP180;59266;52.608;13.260;2023-07-24T03:30:05;100148.00;;;20.10
71463;BMP180;59266;52.608;13.260;2023-07-24T03:32:32;100147.00;;;20.00
71463;BMP180;59266;52.608;13.260;2023-07-24T03:34:59;100154.00;;;19.90
71463;BMP180;59266;52.608;13.260;2023-07-24T03:37:26;100164.00;;;19.90
71463;BMP180;59266;52.608;13.260;2023-07-24T03:39:53;100147.00;;;19.90
71463;BMP180;59266;52.608;13.260;2023-07-24T03:42:31;100166.00;;;19.80
71463;BMP180;59266;52.608;13.260;2023-07-24T03:44:59;100159.00;;;19.70
71463;BMP180;59266;52.608;13.260;2023-07-24T03:47:28;100158.00;;;19.80
71463;BMP180;59266;52.608;13.260;2023-07-24T03:49:55;100159.00;;;19.50
71463;BMP180;59266;52.608;13.260;2023-07-24T03:52:22;100162.00;;;19.60
71463;BMP180;59266;52.608;13.260;2023-07-24T03:54:49;100162.00;;;19.50
71463;BMP180;59266;52.608;13.260;2023-07-24T03:57:17;100155.00;;;19.60
71463;BMP180;59266;52.608;13.260;2023-07-24T03:59:44;100150.00;;;19.60
71463;BMP180;59266;52.608;13.260;2023-07-24T04:02:11;100155.00;;;19.70
71463;BMP180;59266;52.608;13.260;2023-07-24T04:04:38;100152.00;;;19.60
71463;BMP180;59266;52.608;13.260;2023-07-24T04:07:07;100154.00;;;19.60
71463;BMP180;59266;52.608;13.260;2023-07-24T04:09:34;100154.00;;;19.50
71463;BMP180;59266;52.608;13.260;2023-07-24T04:12:01;100159.00;;;19.50
71463;BMP180;59266;52.608;13.260;2023-07-24T04:14:27;100160.00;;;19.50
71463;BMP180;59266;52.608;13.260;2023-07-24T04:16:54;100160.00;;;19.40
71463;BMP180;59266;52.608;13.260;2023-07-24T04:19:24;100155.00;;;19.60
71463;BMP180;59266;52.608;13.260;2023-07-24T04:21:51;100154.00;;;19.60
71463;BMP180;59266;52.608;13.260;2023-07-24T04:24:18;100162.00;;;19.80
71463;BMP180;59266;52.608;13.260;2023-07-24T04:26:45;100156.00;;;19.60
71463;BMP180;59266;52.608;13.260;2023-07-24T04:29:12;100164.00;;;19.80
71463;BMP180;59266;52.608;13.260;2023-07-24T04:31:39;100179.00;;;19.60
71463;BMP180;59266;52.608;13.260;2023-07-24T04:34:05;100170.00;;;19.60
71463;BMP180;59266;52.608;13.260;2023-07-24T04:36:32;100169.00;;;19.60
71463;BMP180;59266;52.608;13.260;2023-07-24T04:38:59;100169.00;;;19.70
71463;BMP180;59266;52.608;13.260;2023-07-24T04:41:26;100166.00;;;19.70
71463;BMP180;59266;52.608;13.260;2023-07-24T04:43:53;100161.00;;;19.80
71463;BMP180;59266;52.608;13.260;2023-07-24T04:46:21;100152.00;;;19.90
71463;BMP180;59266;52.608;13.260;2023-07-24T04:48:49;100152.00;;;20.00
71463;BMP180;59266;52.608;13.260;2023-07-24T04:51:17;100144.00;;;20.20
71463;BMP180;59266;52.608;13.260;2023-07-24T04:53:45;100146.00;;;20.40
71463;BMP180;59266;52.608;13.260;2023-07-24T04:56:13;100146.00;;;20.50
71463;BMP180;59266;52.608;13.260;2023-07-24T04:58:41;100144.00;;;20.60
71463;BMP180;59266;52.608;13.260;2023-07-24T05:01:09;100136.00;;;20.60
71463;BMP180;59266;52.608;13.260;2023-07-24T05:03:38;100141.00;;;20.60
71463;BMP180;59266;52.608;13.260;2023-07-24T05:06:05;100140.00;;;20.70
71463;BMP180;59266;52.608;13.260;2023-07-24T05:08:31;100136.00;;;20.70
71463;BMP180;59266;52.608;13.260;2023-07-24T05:10:58;100138.00;;;20.70
71463;BMP180;59266;52.608;13.260;2023-07-24T05:13:28;100130.00;;;20.70
71463;BMP180;59266;52.608;13.260;2023-07-24T05:15:55;100124.00;;;20.70
71463;BMP180;59266;52.608;13.260;2023-07-24T05:18:25;100117.00;;;20.90
71463;BMP180;59266;52.608;13.260;2023-07-24T05:20:51;100113.00;;;21.10
71463;BMP180;59266;52.608;13.260;2023-07-24T05:23:18;100113.00;;;21.30
71463;BMP180;59266;52.608;13.260;2023-07-24T05:25:45;100105.00;;;21.30
71463;BMP180;59266;52.608;13.260;2023-07-24T05:28:12;100110.00;;;21.40
71463;BMP180;59266;52.608;13.260;2023-07-24T05:30:38;100106.00;;;21.50
71463;BMP180;59266;52.608;13.260;2023-07-24T05:33:07;100109.00;;;21.70
71463;BMP180;59266;52.608;13.260;2023-07-24T05:35:34;100098.00;;;21.60
71463;BMP180;59266;52.608;13.260;2023-07-24T05:38:03;100106.00;;;21.80
71463;BMP180;59266;52.608;13.260;2023-07-24T05:40:32;100106.00;;;21.70
71463;BMP180;59266;52.608;13.260;2023-07-24T05:42:59;100098.00;;;21.80
71463;BMP180;59266;52.608;13.260;2023-07-24T05:45:26;100100.00;;;21.80
71463;BMP180;59266;52.608;13.260;2023-07-24T05:47:53;100102.00;;;21.80
71463;BMP180;59266;52.608;13.260;2023-07-24T05:50:22;100102.00;;;21.90
71463;BMP180;59266;52.608;13.260;2023-07-24T05:52:51;100088.00;;;21.80
71463;BMP180;59266;52.608;13.260;2023-07-24T05:55:19;100093.00;;;21.90
71463;BMP180;59266;52.608;13.260;2023-07-24T05:57:47;100086.00;;;22.00
71463;BMP180;59266;52.608;13.260;2023-07-24T06:00:14;100076.00;;;22.30
71463;BMP180;59266;52.608;13.260;2023-07-24T06:02:41;100062.00;;;22.80
71463;BMP180;59266;52.608;13.260;2023-07-24T06:05:08;100069.00;;;23.50
71463;BMP180;59266;52.608;13.260;2023-07-24T06:07:35;100064.00;;;24.70
71463;BMP180;59266;52.608;13.260;2023-07-24T06:10:02;100059.00;;;25.30
71463;BMP180;59266;52.608;13.260;2023-07-24T06:12:29;100065.00;;;26.60
71463;BMP180;59266;52.608;13.260;2023-07-24T06:14:57;100073.00;;;25.80
71463;BMP180;59266;52.608;13.260;2023-07-24T06:17:25;100062.00;;;26.20
71463;BMP180;59266;52.608;13.260;2023-07-24T06:19:53;100052.00;;;27.80
71463;BMP180;59266;52.608;13.260;2023-07-24T06:22:20;100054.00;;;29.60
71463;BMP180;59266;52.608;13.260;2023-07-24T06:24:47;100061.00;;;29.10
71463;BMP180;59266;52.608;13.260;2023-07-24T06:27:14;100054.00;;;30.60
71463;BMP180;59266;52.608;13.260;2023-07-24T06:29:41;100053.00;;;32.00
71463;BMP180;59266;52.608;13.260;2023-07-24T06:32:08;100050.00;;;33.00
71463;BMP180;59266;52.608;13.260;2023-07-24T06:34:35;100044.00;;;33.90
71463;BMP180;59266;52.608;13.260;2023-07-24T06:37:02;100048.00;;;33.50
71463;BMP180;59266;52.608;13.260;2023-07-24T06:39:47;100045.00;;;32.30
71463;BMP180;59266;52.608;13.260;2023-07-24T06:42:16;100045.00;;;33.20
71463;BMP180;59266;52.608;13.260;2023-07-24T06:44:45;100046.00;;;34.70
71463;BMP180;59266;52.608;13.260;2023-07-24T06:47:12;100038.00;;;35.30
71463;BMP180;59266;52.608;13.260;2023-07-24T06:49:39;100048.00;;;36.20
71463;BMP180;59266;52.608;13.260;2023-07-24T06:52:06;100040.00;;;34.90
71463;BMP180;59266;52.608;13.260;2023-07-24T06:54:33;100038.00;;;35.40
71463;BMP180;59266;52.608;13.260;2023-07-24T06:57:00;100034.00;;;35.50
71463;BMP180;59266;52.608;13.260;2023-07-24T06:59:53;100029.00;;;35.70
71463;BMP180;59266;52.608;13.260;2023-07-24T07:02:22;100026.00;;;34.10
71463;BMP180;59266;52.608;13.260;2023-07-24T07:04:49;100024.00;;;35.10
71463;BMP180;59266;52.608;13.260;2023-07-24T07:07:15;100017.00;;;36.20
71463;BMP180;59266;52.608;13.260;2023-07-24T07:09:42;100015.00;;;36.20
71463;BMP180;59266;52.608;13.260;2023-07-24T07:12:15;100013.00;;;36.90
71463;BMP180;59266;52.608;13.260;2023-07-24T07:14:44;100010.00;;;36.60
71463;BMP180;59266;52.608;13.260;2023-07-24T07:17:11;100037.00;;;34.80
71463;BMP180;59266;52.608;13.260;2023-07-24T07:19:39;100010.00;;;34.90
71463;BMP180;59266;52.608;13.260;2023-07-24T07:22:06;100014.00;;;35.90
71463;BMP180;59266;52.608;13.260;2023-07-24T07:24:34;100015.00;;;36.00
71463;BMP180;59266;52.608;13.260;2023-07-24T07:27:01;100003.00;;;38.20
71463;BMP180;59266;52.608;13.260;2023-07-24T07:29:27;100013.00;;;37.50
71463;BMP180;59266;52.608;13.260;2023-07-24T07:31:56;100007.00;;;33.80
71463;BMP180;59266;52.608;13.260;2023-07-24T07:34:23;100015.00;;;35.30
71463;BMP180;59266;52.608;13.260;2023-07-24T07:36:50;100015.00;;;36.40
71463;BMP180;59266;52.608;13.260;2023-07-24T07:39:16;100024.00;;;36.30
71463;BMP180;59266;52.608;13.260;2023-07-24T07:41:43;100017.00;;;38.20
71463;BMP180;59266;52.608;13.260;2023-07-24T07:44:14;100036.00;;;35.50
71463;BMP180;59266;52.608;13.260;2023-07-24T07:46:41;100021.00;;;35.10
71463;BMP180;59266;52.608;13.260;2023-07-24T07:49:09;100020.00;;;38.20
71463;BMP180;59266;52.608;13.260;2023-07-24T07:51:35;100024.00;;;38.30
71463;BMP180;59266;52.608;13.260;2023-07-24T07:54:02;100018.00;;;37.40
71463;BMP180;59266;52.608;13.260;2023-07-24T07:56:29;100024.00;;;36.40
71463;BMP180;59266;52.608;13.260;2023-07-24T07:58:56;100030.00;;;37.00
71463;BMP180;59266;52.608;13.260;2023-07-24T08:01:23;100050.00;;;37.20
71463;BMP180;59266;52.608;13.260;2023-07-24T08:03:50;100027.00;;;36.50
71463;BMP180;59266;52.608;13.260;2023-07-24T08:06:17;100032.00;;;38.30
71463;BMP180;59266;52.608;13.260;2023-07-24T08:08:43;100048.00;;;35.40
71463;BMP180;59266;52.608;13.260;2023-07-24T08:11:10;100046.00;;;33.80
71463;BMP180;59266;52.608;13.260;2023-07-24T08:13:37;100028.00;;;33.00
71463;BMP180;59266;52.608;13.260;2023-07-24T08:16:12;100035.00;;;34.60
71463;BMP180;59266;52.608;13.260;2023-07-24T08:18:45;100033.00;;;32.60
71463;BMP180;59266;52.608;13.260;2023-07-24T08:21:14;100028.00;;;31.20
71463;BMP180;59266;52.608;13.260;2023-07-24T08:23:41;100019.00;;;31.60
71463;BMP180;59266;52.608;13.260;2023-07-24T08:26:08;100001.00;;;30.90
71463;BMP180;59266;52.608;13.260;2023-07-24T08:28:35;100015.00;;;33.30
71463;BMP180;59266;52.608;13.260;2023-07-24T08:31:02;100028.00;;;30.40
71463;BMP180;59266;52.608;13.260;2023-07-24T08:33:33;100022.00;;;31.10
71463;BMP180;59266;52.608;13.260;2023-07-24T08:36:01;100008.00;;;30.70
71463;BMP180;59266;52.608;13.260;2023-07-24T08:38:28;100005.00;;;30.10
71463;BMP180;59266;52.608;13.260;2023-07-24T08:41:03;100005.00;;;31.10
71463;BMP180;59266;52.608;13.260;2023-07-24T08:43:31;99995.00;;;30.70
71463;BMP180;59266;52.608;13.260;2023-07-24T08:45:59;99973.00;;;32.70
71463;BMP180;59266;52.608;13.260;2023-07-24T08:48:29;99967.00;;;33.20
71463;BMP180;59266;52.608;13.260;2023-07-24T08:50:57;99979.00;;;34.50
71463;BMP180;59266;52.608;13.260;2023-07-24T08:53:27;99982.00;;;32.90
71463;BMP180;59266;52.608;13.260;2023-07-24T08:55:56;99969.00;;;33.40
71463;BMP180;59266;52.608;13.260;2023-07-24T08:58:23;99968.00;;;35.00
71463;BMP180;59266;52.608;13.260;2023-07-24T09:00:52;99962.00;;;35.30
71463;BMP180;59266;52.608;13.260;2023-07-24T09:03:19;99958.00;;;33.80
71463;BMP180;59266;52.608;13.260;2023-07-24T09:05:49;99948.00;;;34.50
71463;BMP180;59266;52.608;13.260;2023-07-24T09:08:16;99955.00;;;34.60
71463;BMP180;59266;52.608;13.260;2023-07-24T09:10:43;99944.00;;;34.40
71463;BMP180;59266;52.608;13.260;2023-07-24T09:13:11;99943.00;;;34.30
71463;BMP180;59266;52.608;13.260;2023-07-24T09:15:44;99946.00;;;35.00
71463;BMP180;59266;52.608;13.260;2023-07-24T09:18:12;99964.00;;;34.60
71463;BMP180;59266;52.608;13.260;2023-07-24T09:20:43;99939.00;;;33.00
71463;BMP180;59266;52.608;13.260;2023-07-24T09:23:11;99942.00;;;32.70
71463;BMP180;59266;52.608;13.260;2023-07-24T09:25:44;99927.00;;;34.10
71463;BMP180;59266;52.608;13.260;2023-07-24T09:28:13;99945.00;;;35.60
71463;BMP180;59266;52.608;13.260;2023-07-24T09:30:42;99925.00;;;33.10
71463;BMP180;59266;52.608;13.260;2023-07-24T09:33:18;99954.00;;;34.50
71463;BMP180;59266;52.608;13.260;2023-07-24T09:35:57;99953.00;;;34.50
71463;BMP180;59266;52.608;13.260;2023-07-24T09:38:24;99957.00;;;32.90
71463;BMP180;59266;52.608;13.260;2023-07-24T09:40:52;99944.00;;;33.90
71463;BMP180;59266;52.608;13.260;2023-07-24T09:43:20;99943.00;;;34.70
71463;BMP180;59266;52.608;13.260;2023-07-24T09:46:05;99946.00;;;34.70
71463;BMP180;59266;52.608;13.260;2023-07-24T09:48:34;99963.00;;;33.40
71463;BMP180;59266;52.608;13.260;2023-07-24T09:51:23;99959.00;;;32.70
71463;BMP180;59266;52.608;13.260;2023-07-24T09:54:15;99919.00;;;32.80
71463;BMP180;59266;52.608;13.260;2023-07-24T09:56:47;99946.00;;;33.40
71463;BMP180;59266;52.608;13.260;2023-07-24T09:59:23;99898.00;;;32.40
71463;BMP180;59266;52.608;13.260;2023-07-24T10:01:51;99924.00;;;33.80
71463;BMP180;59266;52.608;13.260;2023-07-24T10:04:18;99883.00;;;33.70
71463;BMP180;59266;52.608;13.260;2023-07-24T10:06:46;99885.00;;;32.70
71463;BMP180;59266;52.608;13.260;2023-07-24T10:09:14;99873.00;;;34.30
71463;BMP180;59266;52.608;13.260;2023-07-24T10:11:41;99904.00;;;35.60
71463;BMP180;59266;52.608;13.260;2023-07-24T10:14:09;99876.00;;;34.40
71463;BMP180;59266;52.608;13.260;2023-07-24T10:16:36;99853.00;;;34.90
71463;BMP180;59266;52.608;13.260;2023-07-24T10:19:13;99852.00;;;35.00
71463;BMP180;59266;52.608;13.260;2023-07-24T10:21:46;99848.00;;;35.60
71463;BMP180;59266;52.608;13.260;2023-07-24T10:24:13;99853.00;;;34.60
71463;BMP180;59266;52.608;13.260;2023-07-24T10:26:55;99851.00;;;35.70
71463;BMP180;59266;52.608;13.260;2023-07-24T10:29:25;99863.00;;;36.10
71463;BMP180;59266;52.608;13.260;2023-07-24T10:31:56;99841.00;;;34.40
71463;BMP180;59266;52.608;13.260;2023-07-24T10:34:23;99846.00;;;34.30
71463;BMP180;59266;52.608;13.260;2023-07-24T10:37:02;99851.00;;;33.20
71463;BMP180;59266;52.608;13.260;2023-07-24T10:39:37;99846.00;;;31.70
71463;BMP180;59266;52.608;13.260;2023-07-24T10:42:09;99837.00;;;32.50
71463;BMP180;59266;52.608;13.260;2023-07-24T10:44:37;99818.00;;;32.70
71463;BMP180;59266;52.608;13.260;2023-07-24T10:47:04;99817.00;;;32.90
71463;BMP180;59266;52.608;13.260;2023-07-24T10:49:30;99808.00;;;32.60
71463;BMP180;59266;52.608;13.260;2023-07-24T10:51:58;99827.00;;;33.30
71463;BMP180;59266;52.608;13.260;2023-07-24T10:54:25;99813.00;;;32.20
71463;BMP180;59266;52.608;13.260;2023-07-24T10:56:59;99819.00;;;31.70
71463;BMP180;59266;52.608;13.260;2023-07-24T10:59:39;99809.00;;;31.60
71463;BMP180;59266;52.608;13.260;2023-07-24T11:02:07;99799.00;;;31.50
71463;BMP180;59266;52.608;13.260;2023-07-24T11:04:34;99803.00;;;31.80
71463;BMP180;59266;52.608;13.260;2023-07-24T11:07:01;99797.00;;;31.50
71463;BMP180;59266;52.608;13.260;2023-07-24T11:09:38;99792.00;;;31.80
71463;BMP180;59266;52.608;13.260;2023-07-24T11:12:14;99793.00;;;31.20
71463;BMP180;59266;52.608;13.260;2023-07-24T11:14:48;99789.00;;;31.30
71463;BMP180;59266;52.608;13.260;2023-07-24T11:17:17;99790.00;;;31.30
71463;BMP180;59266;52.608;13.260;2023-07-24T11:19:44;99800.00;;;30.30
71463;BMP180;59266;52.608;13.260;2023-07-24T11:22:11;99787.00;;;29.90
71463;BMP180;59266;52.608;13.260;2023-07-24T11:24:42;99788.00;;;30.30
71463;BMP180;59266;52.608;13.260;2023-07-24T11:27:13;99766.00;;;30.00
71463;BMP180;59266;52.608;13.260;2023-07-24T11:29:48;99780.00;;;29.40
71463;BMP180;59266;52.608;13.260;2023-07-24T11:32:18;99767.00;;;29.40
71463;BMP180;59266;52.608;13.260;2023-07-24T11:34:49;99771.00;;;29.50
71463;BMP180;59266;52.608;13.260;2023-07-24T11:37:17;99764.00;;;29.40
71463;BMP180;59266;52.608;13.260;2023-07-24T11:40:05;99760.00;;;29.60
71463;BMP180;59266;52.608;13.260;2023-07-24T11:42:38;99748.00;;;29.30
71463;BMP180;59266;52.608;13.260;2023-07-24T11:45:07;99747.00;;;29.20
71463;BMP180;59266;52.608;13.260;2023-07-24T11:47:48;99756.00;;;29.30
71463;BMP180;59266;52.608;13.260;2023-07-24T11:50:16;99762.00;;;28.80
71463;BMP180;59266;52.608;13.260;2023-07-24T11:52:45;99764.00;;;28.60
71463;BMP180;59266;52.608;13.260;2023-07-24T11:55:31;99777.00;;;28.40
71463;BMP180;59266;52.608;13.260;2023-07-24T11:58:01;99791.00;;;28.00
71463;BMP180;59266;52.608;13.260;2023-07-24T12:00:40;99852.00;;;27.00
71463;BMP180;59266;52.608;13.260;2023-07-24T12:03:10;99861.00;;;24.90
71463;BMP180;59266;52.608;13.260;2023-07-24T12:05:41;99859.00;;;24.60
71463;BMP180;59266;52.608;13.260;2023-07-24T12:08:08;99865.00;;;24.10
71463;BMP180;59266;52.608;13.260;2023-07-24T12:10:38;99877.00;;;23.70
71463;BMP180;59266;52.608;13.260;2023-07-24T12:13:06;99891.00;;;23.80
71463;BMP180;59266;52.608;13.260;2023-07-24T12:15:33;99873.00;;;23.40
71463;BMP180;59266;52.608;13.260;2023-07-24T12:18:03;99861.00;;;23.50
71463;BMP180;59266;52.608;13.260;2023-07-24T12:20:30;99843.00;;;23.60
71463;BMP180;59266;52.608;13.260;2023-07-24T12:22:59;99833.00;;;23.70
71463;BMP180;59266;52.608;13.260;2023-07-24T12:25:31;99828.00;;;24.10
71463;BMP180;59266;52.608;13.260;2023-07-24T12:27:57;99824.00;;;24.50
71463;BMP180;59266;52.608;13.260;2023-07-24T12:30:24;99828.00;;;25.10
71463;BMP180;59266;52.608;13.260;2023-07-24T12:32:51;99803.00;;;25.50
71463;BMP180;59266;52.608;13.260;2023-07-24T12:35:19;99809.00;;;25.50
71463;BMP180;59266;52.608;13.260;2023-07-24T12:37:46;99793.00;;;26.60
71463;BMP180;59266;52.608;13.260;2023-07-24T12:40:13;99792.00;;;27.30
71463;BMP180;59266;52.608;13.260;2023-07-24T12:42:40;99800.00;;;27.30
71463;BMP180;59266;52.608;13.260;2023-07-24T12:45:06;99810.00;;;27.00
71463;BMP180;59266;52.608;13.260;2023-07-24T12:47:33;99787.00;;;27.10
71463;BMP180;59266;52.608;13.260;2023-07-24T12:50:01;99788.00;;;27.60
71463;BMP180;59266;52.608;13.260;2023-07-24T12:52:33;99778.00;;;28.00
71463;BMP180;59266;52.608;13.260;2023-07-24T12:55:01;99784.00;;;28.30
71463;BMP180;59266;52.608;13.260;2023-07-24T12:57:30;99776.00;;;27.90
71463;BMP180;59266;52.608;13.260;2023-07-24T12:59:57;99781.00;;;28.30
71463;BMP180;59266;52.608;13.260;2023-07-24T13:02:24;99786.00;;;28.80
71463;BMP180;59266;52.608;13.260;2023-07-24T13:04:52;99775.00;;;29.10
71463;BMP180;59266;52.608;13.260;2023-07-24T13:07:19;99765.00;;;29.50
71463;BMP180;59266;52.608;13.260;2023-07-24T13:09:46;99786.00;;;29.50
71463;BMP180;59266;52.608;13.260;2023-07-24T13:12:14;99792.00;;;29.00
71463;BMP180;59266;52.608;13.260;2023-07-24T13:14:41;99787.00;;;29.40
71463;BMP180;59266;52.608;13.260;2023-07-24T13:17:09;99789.00;;;30.20
71463;BMP180;59266;52.608;13.260;2023-07-24T13:19:36;99790.00;;;29.70
71463;BMP180;59266;52.608;13.260;2023-07-24T13:22:03;99768.00;;;30.50
71463;BMP180;59266;52.608;13.260;2023-07-24T13:24:32;99764.00;;;29.90
71463;BMP180;59266;52.608;13.260;2023-07-24T13:27:00;99770.00;;;30.10
71463;BMP180;59266;52.608;13.260;2023-07-24T13:29:29;99755.00;;;30.00
71463;BMP180;59266;52.608;13.260;2023-07-24T13:31:56;99748.00;;;29.80
71463;BMP180;59266;52.608;13.260;2023-07-24T13:34:24;99756.00;;;30.00
71463;BMP180;59266;52.608;13.260;2023-07-24T13:36:52;99753.00;;;30.40
71463;BMP180;59266;52.608;13.260;2023-07-24T13:39:21;99741.00;;;30.10
71463;BMP180;59266;52.608;13.260;2023-07-24T13:41:49;99736.00;;;30.20
71463;BMP180;59266;52.608;13.260;2023-07-24T13:44:16;99729.00;;;30.50
71463;BMP180;59266;52.608;13.260;2023-07-24T13:46:44;99731.00;;;30.60
71463;BMP180;59266;52.608;13.260;2023-07-24T13:49:12;99744.00;;;29.90
71463;BMP180;59266;52.608;13.260;2023-07-24T13:51:38;99729.00;;;29.70
71463;BMP180;59266;52.608;13.260;2023-07-24T13:54:05;99739.00;;;30.10
71463;BMP180;59266;52.608;13.260;2023-07-24T13:56:32;99725.00;;;30.20
71463;BMP180;59266;52.608;13.260;2023-07-24T13:59:01;99708.00;;;30.20